Time;durP1;ratioP1;P1;durP2;ratioP2;P2;SDS_P1;SDS_P2;PMS_P1;PMS_P2;Temp;Humidity;BMP_temperature;BMP_pressure;BME280_temperature;BME280_humidity;BME280_pressure;Samples;Min_cycle;Max_cycle;Signal;HPM_P1;HPM_P2
2023/08/30 00:01:11;;;;;;;3.58;2.25;;;;;;;;;;5072531;28;20075;-59
2023/08/30 00:03:37;;;;;;;2.58;1.52;;;;;;;;;;5073035;28;20048;-59
2023/08/30 00:06:05;;;;;;;3.22;2.08;;;;;;;;;;5072978;28;20392;-59
2023/08/30 00:08:33;;;;;;;3.75;2.15;;;;;;;;;;5071616;28;20053;-59
2023/08/30 00:11:01;;;;;;;3.88;2.35;;;;;;;;;;5072677;28;20051;-60
2023/08/30 00:13:30;;;;;;;3.53;2.22;;;;;;;;;;5071798;28;20064;-59
2023/08/30 00:15:57;;;;;;;3.65;2.30;;;;;;;;;;5072410;28;20057;-59
2023/08/30 00:18:23;;;;;;;3.70;1.90;;;;;;;;;;5072702;28;20060;-58
2023/08/30 00:20:50;;;;;;;3.15;2.05;;;;;;;;;;5072376;28;20072;-59
2023/08/30 00:23:17;;;;;;;4.97;2.25;;;;;;;;;;5072325;28;20052;-59
2023/08/30 00:25:45;;;;;;;4.78;2.33;;;;;;;;;;5072536;28;20071;-59
2023/08/30 00:28:12;;;;;;;3.75;2.33;;;;;;;;;;5070220;28;20060;-59
2023/08/30 00:30:38;;;;;;;2.55;1.85;;;;;;;;;;5072257;28;20055;-59
2023/08/30 00:33:05;;;;;;;3.88;2.17;;;;;;;;;;5072239;28;20048;-59
2023/08/30 00:35:32;;;;;;;2.63;2.03;;;;;;;;;;5072209;28;20056;-59
2023/08/30 00:37:59;;;;;;;3.63;2.15;;;;;;;;;;5072300;28;20512;-59
2023/08/30 00:40:26;;;;;;;2.85;1.95;;;;;;;;;;5072389;28;20075;-58
2023/08/30 00:42:54;;;;;;;5.20;2.75;;;;;;;;;;5071032;28;20048;-58
2023/08/30 00:45:21;;;;;;;3.17;2.40;;;;;;;;;;5072517;28;20052;-59
2023/08/30 00:47:48;;;;;;;3.38;2.33;;;;;;;;;;5072619;28;20053;-59
2023/08/30 00:50:15;;;;;;;4.38;2.53;;;;;;;;;;5072246;28;20044;-58
2023/08/30 00:52:42;;;;;;;4.93;3.17;;;;;;;;;;5071941;28;20056;-59
2023/08/30 00:55:10;;;;;;;3.78;2.85;;;;;;;;;;5072545;28;20052;-58
2023/08/30 00:57:37;;;;;;;4.53;3.13;;;;;;;;;;5069177;28;20382;-59
2023/08/30 01:00:10;;;;;;;3.80;2.38;;;;;;;;;;5071644;28;20136;-59
2023/08/30 01:02:37;;;;;;;3.40;2.40;;;;;;;;;;5057219;28;20064;-59
2023/08/30 01:05:04;;;;;;;4.28;2.40;;;;;;;;;;5072094;28;20063;-59
2023/08/30 01:07:33;;;;;;;3.15;2.40;;;;;;;;;;5072206;28;20063;-59
2023/08/30 01:09:59;;;;;;;3.88;2.50;;;;;;;;;;5071968;28;20363;-59
2023/08/30 01:12:31;;;;;;;3.25;2.45;;;;;;;;;;5069745;28;20059;-58
2023/08/30 01:15:07;;;;;;;3.50;2.63;;;;;;;;;;5071786;28;20052;-58
2023/08/30 01:17:36;;;;;;;2.63;2.22;;;;;;;;;;5071445;28;20057;-59
2023/08/30 01:20:07;;;;;;;3.30;1.92;;;;;;;;;;5072209;28;20401;-59
2023/08/30 01:22:39;;;;;;;4.38;2.65;;;;;;;;;;5072086;28;20059;-59
2023/08/30 01:25:13;;;;;;;3.30;2.13;;;;;;;;;;5072371;28;20063;-59
2023/08/30 01:27:41;;;;;;;5.22;3.05;;;;;;;;;;5076053;28;20053;-59
2023/08/30 01:30:13;;;;;;;4.45;2.65;;;;;;;;;;5071312;28;20063;-58
2023/08/30 01:32:40;;;;;;;4.05;2.45;;;;;;;;;;5072036;28;20070;-59
2023/08/30 01:35:08;;;;;;;4.40;2.70;;;;;;;;;;5074432;28;20052;-59
2023/08/30 01:37:36;;;;;;;3.83;2.30;;;;;;;;;;5075605;28;20123;-59
2023/08/30 01:40:05;;;;;;;5.32;2.75;;;;;;;;;;5075478;28;20053;-59
2023/08/30 01:42:34;;;;;;;3.33;2.73;;;;;;;;;;5074804;28;20063;-59
2023/08/30 01:45:04;;;;;;;3.72;2.60;;;;;;;;;;5074884;28;20052;-58
2023/08/30 01:47:31;;;;;;;5.78;3.30;;;;;;;;;;5075762;28;20056;-59
2023/08/30 01:49:58;;;;;;;4.70;3.20;;;;;;;;;;5075565;28;20052;-59
2023/08/30 01:52:27;;;;;;;4.32;2.83;;;;;;;;;;5075292;28;20059;-59
2023/08/30 01:54:54;;;;;;;4.50;2.47;;;;;;;;;;5075776;28;20059;-59
2023/08/30 01:57:20;;;;;;;4.45;3.00;;;;;;;;;;5072515;28;20055;-59
2023/08/30 01:59:47;;;;;;;4.97;3.10;;;;;;;;;;5069459;28;20067;-59
2023/08/30 02:02:15;;;;;;;4.68;2.80;;;;;;;;;;5075532;28;20056;-59
2023/08/30 02:04:42;;;;;;;5.90;3.45;;;;;;;;;;5074097;28;20063;-59
2023/08/30 02:07:12;;;;;;;5.93;3.20;;;;;;;;;;5074517;28;20059;-59
2023/08/30 02:09:38;;;;;;;;;;;;;;;;;;5075784;28;20469;-59
2023/08/30 02:12:08;;;;;;;5.55;3.67;;;;;;;;;;5072419;28;19921;-58
2023/08/30 02:14:34;;;;;;;;;;;;;;;;;;5075914;28;20059;-59
2023/08/30 02:17:02;;;;;;;3.85;2.88;;;;;;;;;;5074772;28;20289;-58
2023/08/30 02:19:30;;;;;;;6.55;3.03;;;;;;;;;;5073642;28;20052;-58
2023/08/30 02:21:59;;;;;;;4.47;3.53;;;;;;;;;;5055198;28;20056;-58
2023/08/30 02:24:26;;;;;;;4.30;3.85;;;;;;;;;;5054845;28;20411;-59
2023/08/30 02:26:53;;;;;;;5.50;3.28;;;;;;;;;;5057852;28;20409;-58
2023/08/30 02:29:19;;;;;;;5.60;3.65;;;;;;;;;;5074272;28;20445;-59
2023/08/30 02:31:46;;;;;;;6.15;3.25;;;;;;;;;;5074896;28;20059;-59
2023/08/30 02:34:13;;;;;;;5.18;3.70;;;;;;;;;;5074364;28;20060;-58
2023/08/30 02:36:41;;;;;;;6.68;3.53;;;;;;;;;;5074489;28;20056;-59
2023/08/30 02:39:08;;;;;;;4.45;2.92;;;;;;;;;;5074885;28;20053;-58
2023/08/30 02:41:35;;;;;;;7.75;4.63;;;;;;;;;;5074041;28;20053;-59
2023/08/30 02:44:01;;;;;;;5.80;3.35;;;;;;;;;;5072836;28;20048;-58
2023/08/30 02:46:28;;;;;;;4.82;3.25;;;;;;;;;;5074088;28;20151;-59
2023/08/30 02:48:58;;;;;;;5.32;3.30;;;;;;;;;;5074719;28;20056;-58
2023/08/30 02:51:26;;;;;;;5.90;3.70;;;;;;;;;;5074482;28;20045;-59
2023/08/30 02:53:57;;;;;;;6.15;3.78;;;;;;;;;;5074431;28;20052;-60
2023/08/30 02:56:26;;;;;;;4.95;3.45;;;;;;;;;;5074411;28;20052;-58
2023/08/30 02:58:52;;;;;;;5.30;3.20;;;;;;;;;;5073076;28;20048;-58
2023/08/30 03:01:19;;;;;;;4.68;3.20;;;;;;;;;;5074383;28;20045;-59
2023/08/30 03:03:46;;;;;;;5.88;4.47;;;;;;;;;;5074441;28;20052;-59
2023/08/30 03:06:13;;;;;;;5.53;3.53;;;;;;;;;;5073441;28;20049;-59
2023/08/30 03:08:40;;;;;;;6.10;3.63;;;;;;;;;;5073645;28;20105;-59
2023/08/30 03:11:12;;;;;;;6.63;3.78;;;;;;;;;;5073846;28;20055;-59
2023/08/30 03:13:39;;;;;;;6.13;3.53;;;;;;;;;;5071286;28;20056;-59
2023/08/30 03:16:11;;;;;;;7.05;4.00;;;;;;;;;;5073938;28;20059;-59
2023/08/30 03:18:40;;;;;;;4.93;3.38;;;;;;;;;;5071179;28;20489;-58
2023/08/30 03:21:07;;;;;;;7.05;3.58;;;;;;;;;;5073999;28;20056;-59
2023/08/30 03:23:35;;;;;;;5.32;3.72;;;;;;;;;;5073637;28;20056;-59
2023/08/30 03:26:08;;;;;;;4.50;3.42;;;;;;;;;;5073453;28;20052;-59
2023/08/30 03:28:36;;;;;;;4.85;3.50;;;;;;;;;;5071632;28;20174;-59
2023/08/30 03:31:03;;;;;;;7.35;4.15;;;;;;;;;;5073540;28;20458;-59
2023/08/30 03:33:30;;;;;;;5.22;3.55;;;;;;;;;;5073674;28;20059;-59
2023/08/30 03:35:59;;;;;;;4.88;3.70;;;;;;;;;;5073234;28;20075;-58
2023/08/30 03:38:29;;;;;;;8.00;4.38;;;;;;;;;;5073463;28;20067;-59
2023/08/30 03:40:56;;;;;;;5.82;3.63;;;;;;;;;;5072887;28;20052;-59
2023/08/30 03:43:23;;;;;;;6.43;3.50;;;;;;;;;;5071495;28;20060;-59
2023/08/30 03:45:54;;;;;;;6.07;3.13;;;;;;;;;;5073260;28;20059;-59
2023/08/30 03:48:21;;;;;;;4.07;2.97;;;;;;;;;;5072933;28;20134;-59
2023/08/30 03:50:48;;;;;;;4.82;3.47;;;;;;;;;;5073138;28;20052;-58
2023/08/30 03:53:14;;;;;;;6.35;3.50;;;;;;;;;;5073314;28;20052;-58
2023/08/30 03:55:41;;;;;;;6.10;3.70;;;;;;;;;;5073051;28;20056;-58
2023/08/30 03:58:08;;;;;;;6.70;4.00;;;;;;;;;;5069293;28;20056;-58
2023/08/30 04:00:39;;;;;;;5.90;3.75;;;;;;;;;;5066482;28;20366;-58
2023/08/30 04:03:09;;;;;;;6.28;3.70;;;;;;;;;;5072223;28;20052;-59
2023/08/30 04:05:36;;;;;;;5.20;3.20;;;;;;;;;;5072730;28;20056;-58
2023/08/30 04:08:03;;;;;;;4.82;3.42;;;;;;;;;;5072903;28;20049;-59
2023/08/30 04:10:30;;;;;;;4.20;3.13;;;;;;;;;;5072591;28;20071;-59
2023/08/30 04:12:57;;;;;;;5.35;3.70;;;;;;;;;;5070512;28;20053;-59
2023/08/30 04:15:23;;;;;;;6.53;3.88;;;;;;;;;;5072626;28;20052;-59
2023/08/30 04:17:50;;;;;;;6.57;4.22;;;;;;;;;;5072475;28;20527;-58
2023/08/30 04:20:18;;;;;;;7.90;3.78;;;;;;;;;;5072635;28;20056;-58
2023/08/30 04:22:45;;;;;;;5.68;3.80;;;;;;;;;;5072865;28;20175;-58
2023/08/30 04:25:12;;;;;;;5.63;4.00;;;;;;;;;;5072717;28;20067;-59
2023/08/30 04:27:39;;;;;;;5.40;3.53;;;;;;;;;;5071778;28;20052;-58
2023/08/30 04:30:06;;;;;;;5.88;3.80;;;;;;;;;;5070831;28;20408;-59
2023/08/30 04:32:33;;;;;;;7.03;4.00;;;;;;;;;;5072361;28;20477;-59
2023/08/30 04:34:59;;;;;;;8.73;4.30;;;;;;;;;;5072254;28;20052;-59
2023/08/30 04:37:30;;;;;;;7.28;5.05;;;;;;;;;;5072610;28;20063;-58
2023/08/30 04:39:57;;;;;;;6.55;3.95;;;;;;;;;;5072503;28;20078;-59
2023/08/30 04:42:24;;;;;;;5.75;3.83;;;;;;;;;;5072434;28;20087;-59
2023/08/30 04:44:51;;;;;;;7.35;4.90;;;;;;;;;;5070914;28;20052;-59
2023/08/30 04:47:18;;;;;;;5.95;4.10;;;;;;;;;;5072543;28;20052;-59
2023/08/30 04:49:44;;;;;;;8.93;5.53;;;;;;;;;;5071997;28;20053;-59
2023/08/30 04:52:11;;;;;;;11.48;5.03;;;;;;;;;;5072633;28;20052;-58
2023/08/30 04:54:39;;;;;;;6.90;4.82;;;;;;;;;;5072223;28;20059;-58
2023/08/30 04:57:06;;;;;;;6.90;4.38;;;;;;;;;;5072444;28;20052;-59
2023/08/30 04:59:33;;;;;;;5.20;3.13;;;;;;;;;;5062470;28;20044;-59
2023/08/30 05:01:59;;;;;;;6.22;3.75;;;;;;;;;;5051665;28;20056;-58
2023/08/30 05:04:26;;;;;;;5.03;2.83;;;;;;;;;;5054632;28;20063;-58
2023/08/30 05:06:53;;;;;;;5.45;3.50;;;;;;;;;;5063642;28;20370;-59
2023/08/30 05:09:22;;;;;;;5.55;3.80;;;;;;;;;;5074552;28;20149;-59
2023/08/30 05:11:50;;;;;;;6.93;3.95;;;;;;;;;;5076312;28;20466;-59
2023/08/30 05:14:17;;;;;;;7.78;4.35;;;;;;;;;;5075189;28;20057;-59
2023/08/30 05:16:44;;;;;;;5.10;3.78;;;;;;;;;;5075100;28;20401;-59
2023/08/30 05:19:10;;;;;;;6.63;3.88;;;;;;;;;;5070248;28;20381;-58
2023/08/30 05:21:37;;;;;;;7.80;4.35;;;;;;;;;;5073076;28;20351;-57
2023/08/30 05:24:05;;;;;;;8.45;4.35;;;;;;;;;;5074701;28;20075;-58
2023/08/30 05:26:32;;;;;;;5.10;3.35;;;;;;;;;;5072927;28;20056;-58
2023/08/30 05:29:00;;;;;;;5.85;4.15;;;;;;;;;;5071700;28;20385;-58
2023/08/30 05:31:27;;;;;;;7.03;4.22;;;;;;;;;;5073409;28;20064;-58
2023/08/30 05:33:53;;;;;;;10.25;4.60;;;;;;;;;;5073939;28;20059;-59
2023/08/30 05:36:20;;;;;;;7.55;4.13;;;;;;;;;;5072432;28;20044;-58
2023/08/30 05:38:47;;;;;;;6.70;4.93;;;;;;;;;;5073523;28;20124;-58
2023/08/30 05:41:14;;;;;;;8.70;5.10;;;;;;;;;;5072854;28;20044;-57
2023/08/30 05:43:40;;;;;;;9.32;5.38;;;;;;;;;;5071304;28;20482;-57
2023/08/30 05:46:14;;;;;;;6.65;4.65;;;;;;;;;;5070801;28;20056;-42
2023/08/30 05:48:41;;;;;;;6.75;4.03;;;;;;;;;;5082019;28;20398;-44
2023/08/30 05:51:08;;;;;;;9.60;5.05;;;;;;;;;;5071742;28;20470;-59
2023/08/30 05:53:34;;;;;;;7.10;3.95;;;;;;;;;;5065288;28;20052;-59
2023/08/30 05:56:01;;;;;;;8.00;4.57;;;;;;;;;;5055365;28;20049;-60
2023/08/30 05:58:29;;;;;;;8.10;4.53;;;;;;;;;;5055610;28;20485;-60
2023/08/30 06:00:56;;;;;;;6.57;3.88;;;;;;;;;;5073382;28;20057;-59
2023/08/30 06:03:24;;;;;;;8.10;5.60;;;;;;;;;;5070771;28;20055;-60
2023/08/30 06:05:51;;;;;;;7.25;4.85;;;;;;;;;;5072154;28;20390;-60
2023/08/30 06:08:18;;;;;;;5.95;4.22;;;;;;;;;;5069109;28;20505;-60
2023/08/30 06:10:44;;;;;;;6.38;3.97;;;;;;;;;;5072514;28;20053;-60
2023/08/30 06:13:11;;;;;;;6.28;3.50;;;;;;;;;;5074922;28;20040;-60
2023/08/30 06:15:38;;;;;;;7.50;4.57;;;;;;;;;;5073238;28;20059;-60
2023/08/30 06:18:06;;;;;;;7.72;4.20;;;;;;;;;;5074530;28;20563;-60
2023/08/30 06:20:34;;;;;;;5.85;3.72;;;;;;;;;;5074061;28;20059;-60
2023/08/30 06:23:03;;;;;;;8.27;3.90;;;;;;;;;;5074973;28;20469;-60
2023/08/30 06:25:30;;;;;;;6.05;3.63;;;;;;;;;;5072700;28;20045;-61
2023/08/30 06:27:58;;;;;;;8.25;4.53;;;;;;;;;;5073521;28;20485;-60
2023/08/30 06:30:25;;;;;;;5.50;3.63;;;;;;;;;;5072862;28;20059;-60
2023/08/30 06:32:52;;;;;;;7.38;4.03;;;;;;;;;;5074524;28;20044;-60
2023/08/30 06:35:19;;;;;;;4.82;3.17;;;;;;;;;;5074124;28;20056;-60
2023/08/30 06:37:47;;;;;;;5.80;3.22;;;;;;;;;;5074136;28;20052;-60
2023/08/30 06:40:13;;;;;;;4.97;3.10;;;;;;;;;;5071712;28;20063;-60
2023/08/30 06:42:40;;;;;;;5.47;3.45;;;;;;;;;;5068533;28;20057;-61
2023/08/30 06:45:08;;;;;;;5.30;2.97;;;;;;;;;;5070906;28;20048;-59
2023/08/30 06:47:34;;;;;;;4.40;2.85;;;;;;;;;;5071910;28;20052;-60
2023/08/30 06:50:03;;;;;;;6.22;3.60;;;;;;;;;;5072578;28;20383;-60
2023/08/30 06:52:30;;;;;;;4.73;3.13;;;;;;;;;;5069617;28;20052;-60
2023/08/30 06:54:59;;;;;;;7.43;4.80;;;;;;;;;;5063798;28;20056;-60
2023/08/30 06:57:25;;;;;;;5.25;3.33;;;;;;;;;;5063236;28;20060;-60
2023/08/30 06:59:52;;;;;;;5.82;3.25;;;;;;;;;;5066822;28;20052;-60
2023/08/30 07:02:19;;;;;;;3.17;2.55;;;;;;;;;;5066313;28;20048;-60
2023/08/30 07:04:46;;;;;;;6.40;3.75;;;;;;;;;;5067749;28;20056;-60
2023/08/30 07:07:13;;;;;;;7.85;4.05;;;;;;;;;;5066804;28;20055;-60
2023/08/30 07:09:41;;;;;;;6.78;3.33;;;;;;;;;;5070005;28;20067;-60
2023/08/30 07:12:10;;;;;;;8.43;3.15;;;;;;;;;;5064396;28;20044;-60
2023/08/30 07:14:36;;;;;;;6.30;4.05;;;;;;;;;;5069908;28;20057;-60
2023/08/30 07:17:03;;;;;;;5.90;3.90;;;;;;;;;;5065441;28;20064;-60
2023/08/30 07:19:30;;;;;;;6.45;3.97;;;;;;;;;;5071357;28;20044;-60
2023/08/30 07:21:57;;;;;;;10.63;5.18;;;;;;;;;;5071814;28;20067;-60
2023/08/30 07:24:23;;;;;;;9.95;5.65;;;;;;;;;;5071352;28;20047;-60
2023/08/30 07:26:50;;;;;;;6.60;5.05;;;;;;;;;;5066282;28;20048;-60
2023/08/30 07:29:18;;;;;;;7.10;4.95;;;;;;;;;;5063096;28;20057;-60
2023/08/30 07:31:45;;;;;;;6.05;4.72;;;;;;;;;;5068794;28;20060;-60
2023/08/30 07:34:12;;;;;;;7.55;3.95;;;;;;;;;;5068378;28;20048;-60
2023/08/30 07:36:39;;;;;;;6.70;4.95;;;;;;;;;;5071134;28;20397;-60
2023/08/30 07:39:06;;;;;;;9.23;4.50;;;;;;;;;;5072044;28;20060;-60
2023/08/30 07:41:34;;;;;;;6.07;4.38;;;;;;;;;;5070923;28;20053;-60
2023/08/30 07:44:01;;;;;;;7.72;4.05;;;;;;;;;;5067627;28;20057;-60
2023/08/30 07:46:29;;;;;;;7.90;5.03;;;;;;;;;;5070537;28;20546;-60
2023/08/30 07:48:56;;;;;;;8.37;5.53;;;;;;;;;;5070673;28;20064;-61
2023/08/30 07:51:23;;;;;;;7.32;4.50;;;;;;;;;;5071837;28;20047;-61
2023/08/30 07:53:50;;;;;;;6.07;4.28;;;;;;;;;;5070828;28;20056;-60
2023/08/30 07:56:16;;;;;;;6.70;3.83;;;;;;;;;;5071592;28;20052;-60
2023/08/30 07:58:43;;;;;;;5.90;3.70;;;;;;;;;;5066293;28;20413;-61
2023/08/30 08:01:10;;;;;;;4.78;3.22;;;;;;;;;;5070075;28;20044;-61
2023/08/30 08:03:38;;;;;;;5.07;3.67;;;;;;;;;;5068278;28;20044;-61
2023/08/30 08:06:05;;;;;;;4.50;3.07;;;;;;;;;;5069925;28;20063;-61
2023/08/30 08:08:32;;;;;;;5.43;3.55;;;;;;;;;;5068035;28;20057;-61
2023/08/30 08:10:59;;;;;;;5.30;3.63;;;;;;;;;;5070543;28;20053;-61
2023/08/30 08:13:26;;;;;;;5.40;2.83;;;;;;;;;;5068973;28;20036;-61
2023/08/30 08:15:53;;;;;;;4.88;3.22;;;;;;;;;;5071285;28;20481;-61
2023/08/30 08:18:20;;;;;;;3.88;2.70;;;;;;;;;;5071509;28;20049;-61
2023/08/30 08:20:48;;;;;;;5.93;2.53;;;;;;;;;;5071089;28;20424;-60
2023/08/30 08:23:14;;;;;;;3.22;2.00;;;;;;;;;;5062780;28;20056;-59
2023/08/30 08:25:41;;;;;;;3.90;2.38;;;;;;;;;;5071657;28;20064;-60
2023/08/30 08:28:08;;;;;;;4.03;2.28;;;;;;;;;;5069671;28;20052;-60
2023/08/30 08:30:35;;;;;;;4.53;2.13;;;;;;;;;;5065135;28;20481;-60
2023/08/30 08:33:02;;;;;;;4.82;2.00;;;;;;;;;;5071038;28;20052;-60
2023/08/30 08:35:28;;;;;;;3.35;2.15;;;;;;;;;;5064250;28;20052;-60
2023/08/30 08:37:56;;;;;;;3.05;2.10;;;;;;;;;;5071643;28;20053;-60
2023/08/30 08:40:23;;;;;;;6.82;2.50;;;;;;;;;;5069570;28;20052;-61
2023/08/30 08:42:51;;;;;;;3.83;2.08;;;;;;;;;;5067861;28;20059;-61
2023/08/30 08:45:20;;;;;;;4.90;2.38;;;;;;;;;;5068050;28;20050;-61
2023/08/30 08:47:47;;;;;;;3.83;2.17;;;;;;;;;;5065054;28;20056;-60
2023/08/30 08:50:14;;;;;;;3.90;2.03;;;;;;;;;;5064039;28;20045;-60
2023/08/30 08:52:42;;;;;;;2.30;1.58;;;;;;;;;;5071475;28;20052;-61
2023/08/30 08:55:10;;;;;;;4.82;1.80;;;;;;;;;;5067450;28;20040;-61
2023/08/30 08:57:38;;;;;;;2.72;1.52;;;;;;;;;;5068792;28;20048;-60
2023/08/30 09:00:06;;;;;;;2.67;1.98;;;;;;;;;;5068049;28;20477;-61
2023/08/30 09:02:33;;;;;;;5.33;1.43;;;;;;;;;;5065916;28;20059;-59
2023/08/30 09:05:00;;;;;;;3.05;1.75;;;;;;;;;;5069890;28;20043;-60
2023/08/30 09:07:28;;;;;;;2.47;1.50;;;;;;;;;;5071451;28;20509;-60
2023/08/30 09:09:55;;;;;;;4.88;1.90;;;;;;;;;;5065673;28;20053;-60
2023/08/30 09:12:23;;;;;;;2.90;1.55;;;;;;;;;;5064235;28;20067;-61
2023/08/30 09:14:59;;;;;;;3.00;1.50;;;;;;;;;;5068772;28;20063;-60
2023/08/30 09:17:35;;;;;;;2.90;1.38;;;;;;;;;;5066927;28;20055;-60
2023/08/30 09:20:09;;;;;;;2.25;1.15;;;;;;;;;;5067041;28;20048;-60
2023/08/30 09:22:36;;;;;;;2.47;1.42;;;;;;;;;;5067009;28;20048;-60
2023/08/30 09:25:04;;;;;;;2.55;1.50;;;;;;;;;;5068399;28;20048;-59
2023/08/30 09:27:35;;;;;;;2.40;1.30;;;;;;;;;;5067546;28;20053;-60
2023/08/30 09:30:02;;;;;;;1.98;1.20;;;;;;;;;;5066939;28;20056;-59
2023/08/30 09:32:29;;;;;;;3.08;1.27;;;;;;;;;;5069089;28;20459;-59
2023/08/30 09:34:56;;;;;;;2.92;1.63;;;;;;;;;;5069107;28;20511;-59
2023/08/30 09:37:23;;;;;;;2.13;1.65;;;;;;;;;;5070367;28;20072;-59
2023/08/30 09:39:50;;;;;;;1.95;1.20;;;;;;;;;;5070413;28;20057;-59
2023/08/30 09:42:17;;;;;;;2.47;1.52;;;;;;;;;;5065733;28;20056;-59
2023/08/30 09:44:45;;;;;;;2.38;1.83;;;;;;;;;;5067379;28;20044;-60
2023/08/30 09:47:13;;;;;;;2.85;1.42;;;;;;;;;;5068727;28;20393;-60
2023/08/30 09:49:43;;;;;;;5.20;1.25;;;;;;;;;;5070322;28;20410;-60
2023/08/30 09:52:10;;;;;;;2.65;1.30;;;;;;;;;;5069486;28;20516;-59
2023/08/30 09:54:41;;;;;;;2.65;1.67;;;;;;;;;;5071116;28;20505;-59
2023/08/30 09:57:08;;;;;;;3.58;1.65;;;;;;;;;;5072814;28;20053;-59
2023/08/30 09:59:35;;;;;;;1.70;1.10;;;;;;;;;;5070413;28;20053;-59
2023/08/30 10:02:04;;;;;;;2.28;1.20;;;;;;;;;;5070300;28;20071;-59
2023/08/30 10:04:32;;;;;;;2.28;1.50;;;;;;;;;;5067172;28;20052;-58
2023/08/30 10:06:59;;;;;;;3.67;1.95;;;;;;;;;;5067591;28;20053;-61
2023/08/30 10:09:26;;;;;;;2.95;1.40;;;;;;;;;;5072317;28;20048;-59
2023/08/30 10:11:53;;;;;;;2.67;1.25;;;;;;;;;;5070129;28;20053;-58
2023/08/30 10:14:20;;;;;;;2.00;1.20;;;;;;;;;;5069507;28;20566;-58
2023/08/30 10:16:47;;;;;;;2.45;1.30;;;;;;;;;;5069592;28;20101;-58
2023/08/30 10:19:16;;;;;;;2.55;1.63;;;;;;;;;;5073477;28;20067;-58
2023/08/30 10:21:43;;;;;;;;;;;;;;;;;;5070751;28;20056;-58
2023/08/30 10:24:10;;;;;;;4.03;1.50;;;;;;;;;;5070918;28;19922;-58
2023/08/30 10:26:38;;;;;;;2.33;1.15;;;;;;;;;;5070506;28;20354;-59
2023/08/30 10:29:06;;;;;;;2.17;1.15;;;;;;;;;;5072661;28;20417;-58
2023/08/30 10:31:33;;;;;;;2.30;1.35;;;;;;;;;;5070492;28;20397;-59
2023/08/30 10:34:00;;;;;;;1.98;0.93;;;;;;;;;;5068606;28;20053;-59
2023/08/30 10:36:28;;;;;;;2.20;0.98;;;;;;;;;;5072922;28;20447;-58
2023/08/30 10:38:55;;;;;;;2.67;1.00;;;;;;;;;;5057698;28;20068;-58
2023/08/30 10:41:22;;;;;;;1.65;1.08;;;;;;;;;;5057537;28;20426;-59
2023/08/30 10:43:53;;;;;;;3.42;1.73;;;;;;;;;;5072772;28;20052;-59
2023/08/30 10:46:30;;;;;;;3.00;1.35;;;;;;;;;;5065633;28;20063;-58
2023/08/30 10:48:57;;;;;;;4.00;1.25;;;;;;;;;;5073152;28;20053;-59
2023/08/30 10:51:38;;;;;;;3.50;1.77;;;;;;;;;;5071197;28;20048;-59
2023/08/30 10:54:11;;;;;;;3.67;1.73;;;;;;;;;;5055556;28;20136;-58
2023/08/30 10:56:46;;;;;;;2.50;1.20;;;;;;;;;;5056075;28;20059;-60
2023/08/30 10:59:17;;;;;;;5.13;1.95;;;;;;;;;;5051350;28;20386;-59
2023/08/30 11:01:44;;;;;;;3.10;1.70;;;;;;;;;;5058857;28;20060;-59
2023/08/30 11:04:11;;;;;;;3.53;1.80;;;;;;;;;;5052429;28;20049;-60
2023/08/30 11:06:40;;;;;;;3.30;1.58;;;;;;;;;;5060806;28;20060;-59
2023/08/30 11:09:08;;;;;;;3.70;1.80;;;;;;;;;;5069226;28;20044;-59
2023/08/30 11:11:35;;;;;;;2.95;1.30;;;;;;;;;;5070230;28;20056;-59
2023/08/30 11:14:04;;;;;;;2.88;1.42;;;;;;;;;;5066760;28;20052;-59
2023/08/30 11:16:31;;;;;;;10.35;1.63;;;;;;;;;;5068948;28;20056;-59
2023/08/30 11:18:58;;;;;;;2.35;1.45;;;;;;;;;;5072010;28;20048;-59
2023/08/30 11:21:25;;;;;;;2.95;1.73;;;;;;;;;;5070130;28;20491;-59
2023/08/30 11:23:53;;;;;;;4.38;2.00;;;;;;;;;;5068783;28;20048;-59
2023/08/30 11:26:20;;;;;;;3.95;1.60;;;;;;;;;;5068763;28;20383;-60
2023/08/30 11:28:48;;;;;;;3.25;2.05;;;;;;;;;;5070209;28;20428;-60
2023/08/30 11:31:18;;;;;;;1.80;1.42;;;;;;;;;;5070339;28;20052;-59
2023/08/30 11:33:51;;;;;;;2.63;1.50;;;;;;;;;;5070725;28;20052;-59
2023/08/30 11:36:18;;;;;;;2.63;1.92;;;;;;;;;;5070919;28;20055;-59
2023/08/30 11:38:46;;;;;;;5.55;1.90;;;;;;;;;;5070965;28;20516;-60
2023/08/30 11:41:14;;;;;;;2.95;1.40;;;;;;;;;;5070307;28;20056;-60
2023/08/30 11:43:41;;;;;;;1.57;1.03;;;;;;;;;;5070025;28;20493;-60
2023/08/30 11:46:09;;;;;;;1.70;1.30;;;;;;;;;;5069671;28;20055;-60
2023/08/30 11:48:35;;;;;;;2.53;1.63;;;;;;;;;;5064909;28;20396;-60
2023/08/30 11:51:02;;;;;;;3.90;1.90;;;;;;;;;;5071133;28;20053;-60
2023/08/30 11:53:29;;;;;;;2.75;1.70;;;;;;;;;;5068847;28;20511;-61
2023/08/30 11:55:57;;;;;;;3.75;1.80;;;;;;;;;;5070301;28;20044;-60
2023/08/30 11:58:27;;;;;;;3.50;1.67;;;;;;;;;;5066909;28;20405;-60
2023/08/30 12:00:55;;;;;;;2.92;1.30;;;;;;;;;;5068070;28;20045;-60
2023/08/30 12:03:21;;;;;;;3.53;1.85;;;;;;;;;;5067858;28;20048;-60
2023/08/30 12:05:49;;;;;;;2.45;1.35;;;;;;;;;;5068594;28;20401;-60
2023/08/30 12:08:19;;;;;;;2.22;1.33;;;;;;;;;;5069844;28;20059;-60
2023/08/30 12:10:46;;;;;;;2.33;1.13;;;;;;;;;;5062721;28;20469;-60
2023/08/30 12:13:23;;;;;;;2.40;1.55;;;;;;;;;;5068347;28;20052;-60
2023/08/30 12:15:51;;;;;;;2.40;1.50;;;;;;;;;;5065480;28;20051;-60
2023/08/30 12:18:21;;;;;;;3.08;1.80;;;;;;;;;;5060895;28;20417;-60
2023/08/30 12:20:55;;;;;;;3.05;2.00;;;;;;;;;;5069393;28;20049;-60
2023/08/30 12:23:22;;;;;;;2.95;1.80;;;;;;;;;;5069420;28;20052;-59
2023/08/30 12:25:59;;;;;;;2.60;1.98;;;;;;;;;;5069678;28;20045;-60
2023/08/30 12:28:25;;;;;;;4.53;2.35;;;;;;;;;;5070072;28;20049;-61
2023/08/30 12:30:54;;;;;;;3.40;2.20;;;;;;;;;;5069453;28;20064;-60
2023/08/30 12:33:21;;;;;;;2.80;2.00;;;;;;;;;;5069916;28;20048;-60
2023/08/30 12:35:48;;;;;;;3.90;2.08;;;;;;;;;;5069726;28;20504;-60
2023/08/30 12:38:18;;;;;;;3.53;2.05;;;;;;;;;;5069765;28;20475;-61
2023/08/30 12:40:45;;;;;;;4.57;1.85;;;;;;;;;;5069458;28;20055;-60
2023/08/30 12:43:12;;;;;;;3.90;2.13;;;;;;;;;;5068810;28;20044;-60
2023/08/30 12:45:39;;;;;;;3.60;2.03;;;;;;;;;;5069841;28;20056;-61
2023/08/30 12:48:08;;;;;;;2.63;2.08;;;;;;;;;;5067126;28;20053;-61
2023/08/30 12:50:35;;;;;;;2.45;2.00;;;;;;;;;;5069117;28;20055;-60
2023/08/30 12:53:02;;;;;;;3.28;1.98;;;;;;;;;;5069268;28;20052;-60
2023/08/30 12:55:29;;;;;;;2.45;1.73;;;;;;;;;;5069606;28;20048;-60
2023/08/30 12:57:55;;;;;;;2.78;1.85;;;;;;;;;;5069942;28;20060;-61
2023/08/30 13:00:22;;;;;;;2.25;1.15;;;;;;;;;;5067072;28;20059;-60
2023/08/30 13:02:49;;;;;;;3.50;2.00;;;;;;;;;;5067331;28;20390;-62
2023/08/30 13:05:18;;;;;;;2.40;1.58;;;;;;;;;;5068620;28;20041;-62
2023/08/30 13:07:44;;;;;;;3.05;1.58;;;;;;;;;;5065362;28;20052;-60
2023/08/30 13:10:11;;;;;;;3.58;2.30;;;;;;;;;;5070800;28;20064;-60
2023/08/30 13:12:38;;;;;;;2.90;1.25;;;;;;;;;;5067425;28;20059;-61
2023/08/30 13:15:06;;;;;;;0.82;0.60;;;;;;;;;;5064877;28;20040;-61
2023/08/30 13:17:32;;;;;;;1.38;0.70;;;;;;;;;;5069464;28;20060;-60
2023/08/30 13:19:59;;;;;;;1.30;0.80;;;;;;;;;;5063400;28;20048;-60
2023/08/30 13:22:27;;;;;;;1.40;0.85;;;;;;;;;;5070862;28;20373;-60
2023/08/30 13:24:54;;;;;;;0.98;0.65;;;;;;;;;;5063149;28;20063;-61
2023/08/30 13:27:21;;;;;;;1.05;0.70;;;;;;;;;;5070800;28;20424;-60
2023/08/30 13:29:48;;;;;;;1.05;0.73;;;;;;;;;;5070621;28;20053;-61
2023/08/30 13:32:14;;;;;;;1.00;0.57;;;;;;;;;;5073877;28;20049;-60
2023/08/30 13:34:43;;;;;;;1.05;0.70;;;;;;;;;;5073076;28;20504;-60
2023/08/30 13:37:10;;;;;;;1.20;0.70;;;;;;;;;;5073804;28;20067;-60
2023/08/30 13:39:38;;;;;;;1.50;0.70;;;;;;;;;;5072822;28;20402;-60
2023/08/30 13:42:05;;;;;;;1.13;0.85;;;;;;;;;;5074496;28;20466;-60
2023/08/30 13:44:32;;;;;;;1.55;0.80;;;;;;;;;;5071658;28;20063;-60
2023/08/30 13:46:59;;;;;;;0.88;0.60;;;;;;;;;;5068815;28;20048;-60
2023/08/30 13:49:26;;;;;;;1.13;0.75;;;;;;;;;;5073325;28;20059;-60
2023/08/30 13:51:53;;;;;;;1.40;0.60;;;;;;;;;;5071737;28;20515;-62
2023/08/30 13:54:20;;;;;;;0.85;0.50;;;;;;;;;;5073806;28;20053;-60
2023/08/30 13:56:48;;;;;;;1.15;0.60;;;;;;;;;;5073323;28;20115;-61
2023/08/30 13:59:16;;;;;;;1.33;0.65;;;;;;;;;;5070751;28;20053;-60
2023/08/30 14:01:42;;;;;;;1.85;1.02;;;;;;;;;;5070985;28;20511;-60
2023/08/30 14:04:09;;;;;;;1.55;0.80;;;;;;;;;;5074213;28;20053;-61
2023/08/30 14:06:36;;;;;;;0.82;0.50;;;;;;;;;;5074869;28;20048;-60
2023/08/30 14:09:04;;;;;;;1.60;0.93;;;;;;;;;;5074145;28;20052;-60
2023/08/30 14:11:31;;;;;;;3.63;0.73;;;;;;;;;;5073310;28;20044;-60
2023/08/30 14:13:59;;;;;;;1.63;1.10;;;;;;;;;;5071354;28;20048;-60
2023/08/30 14:16:25;;;;;;;1.92;1.10;;;;;;;;;;5069080;28;20445;-60
2023/08/30 14:18:52;;;;;;;1.52;0.80;;;;;;;;;;5072623;28;20500;-60
2023/08/30 14:21:19;;;;;;;4.45;1.00;;;;;;;;;;5068831;28;20485;-61
2023/08/30 14:23:46;;;;;;;1.75;1.15;;;;;;;;;;5071600;28;20445;-61
2023/08/30 14:26:14;;;;;;;2.50;1.08;;;;;;;;;;5073446;28;20366;-60
2023/08/30 14:28:41;;;;;;;1.80;1.30;;;;;;;;;;5070114;28;20057;-60
2023/08/30 14:31:10;;;;;;;3.28;1.02;;;;;;;;;;5072415;28;20056;-60
2023/08/30 14:33:36;;;;;;;1.33;0.77;;;;;;;;;;5073743;28;20498;-60
2023/08/30 14:36:03;;;;;;;1.17;0.70;;;;;;;;;;5074335;28;20060;-60
2023/08/30 14:38:30;;;;;;;4.43;1.10;;;;;;;;;;5074144;28;20512;-60
2023/08/30 14:40:57;;;;;;;1.77;0.75;;;;;;;;;;5073850;28;20048;-60
2023/08/30 14:43:24;;;;;;;3.05;1.42;;;;;;;;;;5074589;28;20059;-61
2023/08/30 14:45:51;;;;;;;2.28;0.90;;;;;;;;;;5073237;28;20059;-61